Time;durP1;ratioP1;P1;durP2;ratioP2;P2;SDS_P1;SDS_P2;PMS_P1;PMS_P2;Temp;Humidity;BMP_temperature;BMP_pressure;BME280_temperature;BME280_humidity;BME280_pressure;Samples;Min_cycle;Max_cycle;Signal;HPM_P1;HPM_P2
2021/12/12 00:00:57;;;;;;;28.80;14.82;;;;;;;6.45;100.00;100756.91;5108143;28;20073;-74
2021/12/12 00:03:34;;;;;;;39.47;18.88;;;;;;;6.48;100.00;100757.44;5108047;28;20036;-77
2021/12/12 00:06:06;;;;;;;17.75;14.00;;;;;;;6.38;100.00;100754.00;5110123;28;20447;-72
2021/12/12 00:08:32;;;;;;;27.40;14.13;;;;;;;6.40;100.00;100759.16;5108212;28;20106;-74
2021/12/12 00:11:06;;;;;;;36.03;18.60;;;;;;;6.40;100.00;100744.16;5111331;28;20486;-72
2021/12/12 00:13:37;;;;;;;33.13;17.25;;;;;;;6.42;100.00;100750.13;5112284;28;20024;-73
2021/12/12 00:16:04;;;;;;;31.13;17.88;;;;;;;6.47;100.00;100755.78;5100038;28;20035;-77
2021/12/12 00:18:30;;;;;;;37.85;16.95;;;;;;;6.45;100.00;100756.91;5109668;28;20035;-78
2021/12/12 00:20:58;;;;;;;21.13;14.90;;;;;;;6.46;100.00;100743.56;5116387;27;20539;-76
2021/12/12 00:23:24;;;;;;;34.15;19.65;;;;;;;6.45;100.00;100731.38;5114269;28;20019;-77
2021/12/12 00:25:53;;;;;;;32.35;14.63;;;;;;;6.49;100.00;100727.50;5099896;28;20093;-73
2021/12/12 00:28:21;;;;;;;24.98;14.52;;;;;;;6.44;100.00;100742.88;5117262;28;20072;-75
2021/12/12 00:30:53;;;;;;;37.88;20.08;;;;;;;6.49;100.00;100737.19;5098644;28;20093;-73
2021/12/12 00:33:19;;;;;;;33.47;18.63;;;;;;;6.50;100.00;100730.94;5103995;28;20026;-72
2021/12/12 00:35:45;;;;;;;24.33;13.90;;;;;;;6.50;100.00;100730.94;5103681;28;20019;-72
2021/12/12 00:38:15;;;;;;;26.10;13.93;;;;;;;6.54;100.00;100727.91;5112572;28;20049;-75
2021/12/12 00:40:44;;;;;;;21.92;10.90;;;;;;;6.65;100.00;100722.44;5099501;28;20023;-75
2021/12/12 00:43:24;;;;;;;21.92;12.40;;;;;;;6.72;100.00;100727.97;5113435;28;20027;-73
2021/12/12 00:45:53;;;;;;;16.13;10.13;;;;;;;6.75;100.00;100714.47;5111741;28;20032;-75
2021/12/12 00:48:19;;;;;;;10.07;7.70;;;;;;;6.69;100.00;100720.34;5101064;28;20424;-76
2021/12/12 00:50:45;;;;;;;25.77;15.30;;;;;;;6.64;100.00;100714.69;5113431;28;20028;-75
2021/12/12 00:53:13;;;;;;;23.67;13.07;;;;;;;6.74;100.00;100722.53;5113416;28;20024;-75
2021/12/12 00:55:41;;;;;;;30.42;15.60;;;;;;;6.81;100.00;100708.63;5113216;28;20121;-74
2021/12/12 00:58:10;;;;;;;29.90;14.00;;;;;;;6.81;100.00;100716.53;5113120;27;20036;-74
2021/12/12 01:00:43;;;;;;;15.93;8.80;;;;;;;6.78;100.00;100708.09;5110892;28;20493;-74
2021/12/12 01:03:10;;;;;;;25.92;14.77;;;;;;;6.73;100.00;100705.06;5114257;28;20031;-72
2021/12/12 01:05:38;;;;;;;34.10;15.40;;;;;;;6.78;100.00;100721.28;5115697;28;20488;-74
2021/12/12 01:08:05;;;;;;;19.13;11.98;;;;;;;6.77;100.00;100706.44;5110844;28;20020;-73
2021/12/12 01:10:49;;;;;;;23.95;13.32;;;;;;;6.72;100.00;100706.88;5113639;28;20035;-73
2021/12/12 01:13:15;;;;;;;21.27;13.10;;;;;;;6.71;100.00;100707.84;5107154;28;20020;-73
2021/12/12 01:15:51;;;;;;;25.65;14.30;;;;;;;6.68;100.00;100715.19;5113790;28;20546;-76
2021/12/12 01:18:26;;;;;;;24.92;12.25;;;;;;;6.69;100.00;100719.53;5115073;28;20027;-75
2021/12/12 01:20:56;;;;;;;24.55;14.15;;;;;;;6.62;100.00;100708.72;5104200;28;20031;-72
2021/12/12 01:23:30;;;;;;;28.73;14.18;;;;;;;6.60;100.00;100708.84;5105181;28;20020;-73
2021/12/12 01:25:57;;;;;;;12.68;9.50;;;;;;;6.56;100.00;100698.75;5110134;28;20023;-73
2021/12/12 01:28:26;;;;;;;29.33;14.23;;;;;;;6.62;100.00;100714.00;5108024;28;20036;-73
2021/12/12 01:30:54;;;;;;;28.70;15.15;;;;;;;6.63;100.00;100711.22;5107074;28;20027;-72
2021/12/12 01:33:32;;;;;;;26.02;15.10;;;;;;;6.63;100.00;100719.13;5108932;28;20019;-73
2021/12/12 01:36:07;;;;;;;37.17;15.95;;;;;;;6.62;100.00;100712.19;5114857;28;20050;-76
2021/12/12 01:38:56;;;;;;;23.75;14.20;;;;;;;6.63;100.00;100715.66;5109474;28;20081;-74
2021/12/12 01:41:40;;;;;;;32.97;16.38;;;;;;;6.69;100.00;100711.63;5113123;28;20032;-76
2021/12/12 01:44:15;;;;;;;46.17;17.40;;;;;;;6.72;100.00;100708.69;5113026;28;20094;-74
2021/12/12 01:46:47;;;;;;;21.85;13.07;;;;;;;6.67;100.00;100692.47;5097407;28;20031;-78
2021/12/12 01:49:17;;;;;;;24.35;15.45;;;;;;;6.75;100.00;100706.56;5112866;28;20042;-77
2021/12/12 01:51:46;;;;;;;25.70;14.18;;;;;;;6.77;100.00;100694.09;5111418;28;20024;-78
2021/12/12 01:54:16;;;;;;;19.25;11.50;;;;;;;7.13;100.00;100705.56;5107743;28;20072;-77
2021/12/12 01:56:50;;;;;;;20.92;13.23;;;;;;;7.05;100.00;100705.47;5110215;28;20436;-78
2021/12/12 01:59:19;;;;;;;34.15;15.27;;;;;;;7.19;100.00;100707.59;5111175;28;20027;-76
2021/12/12 02:01:50;;;;;;;22.05;13.20;;;;;;;7.24;100.00;100701.03;5109683;28;20039;-73
2021/12/12 02:04:20;;;;;;;23.77;11.43;;;;;;;7.05;100.00;100679.09;5099414;28;20047;-73
2021/12/12 02:06:49;;;;;;;27.95;14.18;;;;;;;7.20;100.00;100692.59;5114221;28;20019;-75
2021/12/12 02:09:16;;;;;;;16.65;10.55;;;;;;;7.08;100.00;100691.16;5100759;27;20483;-75
2021/12/12 02:11:45;;;;;;;14.25;11.13;;;;;;;7.00;100.00;100681.34;5104234;28;20367;-73
2021/12/12 02:14:18;;;;;;;22.17;13.57;;;;;;;7.02;100.00;100670.63;5112604;28;20027;-75
2021/12/12 02:16:58;;;;;;;27.17;14.07;;;;;;;6.98;100.00;100670.13;5113194;28;20034;-76
2021/12/12 02:19:41;;;;;;;11.70;8.18;;;;;;;6.98;100.00;100664.84;5112226;28;20031;-73
2021/12/12 02:35:54;;;;;;;23.02;12.57;;;;;;;6.97;100.00;100654.41;5097517;28;20058;-75
2021/12/12 02:38:25;;;;;;;10.27;7.47;;;;;;;6.95;100.00;100648.47;5111491;28;20471;-75
2021/12/12 02:40:54;;;;;;;18.65;11.75;;;;;;;7.00;100.00;100660.25;5110176;28;20026;-75
2021/12/12 02:43:25;;;;;;;19.77;12.93;;;;;;;7.01;100.00;100659.25;5103041;28;20372;-76
2021/12/12 02:45:54;;;;;;;27.90;13.65;;;;;;;7.04;100.00;100658.94;5113017;28;20528;-77
2021/12/12 02:48:26;;;;;;;28.35;14.75;;;;;;;7.01;100.00;100656.63;5111857;28;20110;-77
2021/12/12 02:50:52;;;;;;;18.83;12.02;;;;;;;7.21;100.00;100665.25;5104847;28;20368;-77
2021/12/12 02:53:25;;;;;;;26.15;12.70;;;;;;;7.20;100.00;100648.59;5108215;28;20038;-76
2021/12/12 02:55:59;;;;;;;28.40;12.65;;;;;;;7.24;100.00;100658.81;5106997;28;20068;-73
2021/12/12 02:58:25;;;;;;;;;;;;;;;7.16;100.00;100654.28;5111838;28;20036;-72
2021/12/12 03:01:02;;;;;;;30.05;13.30;;;;;;;7.08;100.00;100651.59;5112991;28;19920;-74
2021/12/12 03:03:30;;;;;;;34.08;13.68;;;;;;;7.10;100.00;100647.81;5110133;28;20036;-73
2021/12/12 03:05:56;;;;;;;24.55;13.43;;;;;;;7.11;100.00;100648.63;5103164;28;20398;-77
2021/12/12 03:08:22;;;;;;;21.83;13.07;;;;;;;7.11;100.00;100648.63;5103925;28;20024;-76
2021/12/12 03:10:50;;;;;;;23.80;13.48;;;;;;;7.15;100.00;100648.19;5107930;28;20059;-77
2021/12/12 03:13:16;;;;;;;23.88;13.95;;;;;;;7.20;100.00;100660.94;5112423;28;20044;-74
2021/12/12 03:15:45;;;;;;;25.38;13.23;;;;;;;7.16;100.00;100651.66;5113032;28;20025;-77
2021/12/12 03:18:21;;;;;;;25.45;13.52;;;;;;;7.18;100.00;100653.16;5096984;28;20084;-76
2021/12/12 03:20:51;;;;;;;25.23;12.23;;;;;;;7.26;100.00;100651.59;5098922;28;20024;-76
2021/12/12 03:23:29;;;;;;;19.20;11.75;;;;;;;7.20;100.00;100647.75;5101775;28;20027;-73
2021/12/12 03:26:00;;;;;;;29.50;11.20;;;;;;;7.31;100.00;100647.53;5107416;28;20390;-75
2021/12/12 03:28:28;;;;;;;12.55;8.50;;;;;;;7.26;100.00;100649.78;5106889;28;20036;-73
2021/12/12 03:31:02;;;;;;;19.25;9.73;;;;;;;7.36;100.00;100649.72;5112883;28;20153;-77
2021/12/12 03:33:32;;;;;;;17.02;9.23;;;;;;;7.27;100.00;100643.53;5109787;28;20032;-74
2021/12/12 03:35:59;;;;;;;24.50;12.10;;;;;;;7.35;100.00;100646.25;5111637;28;20028;-74
2021/12/12 03:38:28;;;;;;;11.05;9.10;;;;;;;7.27;100.00;100630.34;5109310;28;20099;-73
2021/12/12 03:40:57;;;;;;;7.18;6.53;;;;;;;7.39;100.00;100644.94;5111142;28;20032;-75
2021/12/12 03:43:22;;;;;;;16.27;9.15;;;;;;;7.41;100.00;100642.97;5112844;28;20027;-72
2021/12/12 03:45:49;;;;;;;16.33;9.85;;;;;;;7.44;100.00;100626.88;5108378;28;20043;-72
2021/12/12 03:48:29;;;;;;;15.80;9.82;;;;;;;7.51;100.00;100635.00;5108262;28;20023;-77
2021/12/12 03:50:59;;;;;;;18.10;10.57;;;;;;;7.57;100.00;100646.78;5110495;28;20028;-75
2021/12/12 03:53:27;;;;;;;17.63;10.55;;;;;;;7.53;100.00;100643.59;5114389;28;20036;-72
2021/12/12 03:55:54;;;;;;;27.77;10.27;;;;;;;7.53;100.00;100646.22;5110278;28;20115;-72
2021/12/12 03:58:19;;;;;;;10.20;7.47;;;;;;;7.53;100.00;100650.69;5118505;28;20110;-73
2021/12/12 04:00:57;;;;;;;22.95;10.27;;;;;;;7.58;100.00;100669.56;5108157;28;20466;-75
2021/12/12 04:03:23;;;;;;;27.70;11.32;;;;;;;7.58;100.00;100659.00;5115109;28;20463;-75
2021/12/12 04:05:53;;;;;;;19.60;9.95;;;;;;;7.58;100.00;100670.38;5116268;28;20027;-74
2021/12/12 04:08:25;;;;;;;15.15;9.10;;;;;;;7.47;100.00;100654.75;5116682;28;20090;-71
2021/12/12 04:10:51;;;;;;;8.13;7.07;;;;;;;7.55;100.00;100654.00;5114068;28;20080;-72
2021/12/12 04:13:16;;;;;;;13.50;8.45;;;;;;;7.53;100.00;100651.50;5117277;28;20031;-74
2021/12/12 04:15:42;;;;;;;8.88;7.82;;;;;;;7.59;100.00;100656.19;5120453;28;20032;-74
2021/12/12 04:18:08;;;;;;;15.05;9.80;;;;;;;7.65;100.00;100649.47;5102075;28;20051;-72
2021/12/12 04:20:36;;;;;;;18.95;8.70;;;;;;;7.73;100.00;100644.25;5125162;28;20106;-74
2021/12/12 04:23:03;;;;;;;18.58;9.00;;;;;;;7.64;100.00;100653.94;5125055;28;20030;-73
2021/12/12 04:25:29;;;;;;;12.85;8.77;;;;;;;7.68;100.00;100657.09;5123760;28;20038;-75
2021/12/12 04:27:55;;;;;;;11.20;7.30;;;;;;;7.77;100.00;100653.50;5129885;28;20035;-72
2021/12/12 04:30:24;;;;;;;12.00;7.53;;;;;;;7.74;100.00;100646.75;5128844;28;20041;-72
2021/12/12 04:32:50;;;;;;;17.08;7.60;;;;;;;7.78;100.00;100636.69;5129364;28;20028;-72
2021/12/12 04:35:22;;;;;;;12.63;9.48;;;;;;;7.77;100.00;100653.50;5124168;28;20036;-74
2021/12/12 04:37:48;;;;;;;18.98;7.05;;;;;;;7.77;100.00;100640.31;5097696;28;20092;-75
2021/12/12 04:40:17;;;;;;;18.23;8.75;;;;;;;7.80;100.00;100644.47;5111582;28;20388;-76
2021/12/12 04:42:44;;;;;;;10.98;7.90;;;;;;;7.77;100.00;100642.94;5115817;28;20027;-76
2021/12/12 04:45:13;;;;;;;14.15;7.70;;;;;;;7.73;100.00;100647.72;5113454;28;20072;-76
2021/12/12 04:51:19;;;;;;;10.35;6.95;;;;;;;7.71;100.00;100644.41;5086941;28;20058;-74
2021/12/12 04:54:19;;;;;;;12.50;7.68;;;;;;;7.79;100.00;100643.66;5110471;28;20051;-75
2021/12/12 04:56:50;;;;;;;13.25;6.88;;;;;;;7.75;100.00;100651.03;5105043;28;20036;-73
2021/12/12 04:59:31;;;;;;;13.07;7.28;;;;;;;7.70;100.00;100632.16;5107622;28;20027;-74
2021/12/12 05:02:10;;;;;;;14.55;6.82;;;;;;;7.82;100.00;100635.41;5110940;28;20035;-75
2021/12/12 05:04:47;;;;;;;18.80;8.45;;;;;;;7.74;100.00;100640.63;5114946;28;20047;-74
2021/12/12 05:07:18;;;;;;;15.85;9.60;;;;;;;7.75;100.00;100642.28;5097798;28;20027;-73
2021/12/12 05:09:52;;;;;;;20.20;8.95;;;;;;;7.80;100.00;100639.19;5106129;28;20024;-74
2021/12/12 05:12:30;;;;;;;13.53;9.60;;;;;;;7.84;100.00;100636.06;5107355;28;20474;-78
2021/12/12 05:15:00;;;;;;;18.98;9.43;;;;;;;7.92;100.00;100643.22;5103448;28;20089;-75
2021/12/12 05:17:39;;;;;;;9.55;7.97;;;;;;;7.91;100.00;100636.28;5115077;27;20043;-75
2021/12/12 05:20:10;;;;;;;11.52;8.25;;;;;;;7.95;100.00;100642.94;5112682;28;20488;-75
2021/12/12 05:22:52;;;;;;;14.55;7.40;;;;;;;7.94;100.00;100647.41;5114943;28;20032;-78
2021/12/12 05:25:22;;;;;;;10.45;7.18;;;;;;;7.92;100.00;100649.34;5110783;28;20020;-76
2021/12/12 05:27:55;;;;;;;19.13;7.22;;;;;;;7.95;100.00;100642.94;5105183;28;20035;-75
2021/12/12 05:30:29;;;;;;;10.98;7.40;;;;;;;7.86;100.00;100641.19;5107649;28;20027;-76
2021/12/12 05:32:56;;;;;;;24.50;7.53;;;;;;;7.95;100.00;100651.69;5115047;28;20439;-76
2021/12/12 05:35:26;;;;;;;18.88;6.65;;;;;;;7.93;100.00;100648.38;5114777;28;20031;-75
2021/12/12 05:37:55;;;;;;;8.43;6.68;;;;;;;7.95;100.00;100653.50;5112989;28;20106;-74
2021/12/12 05:40:31;;;;;;;9.48;6.93;;;;;;;7.95;100.00;100629.72;5105409;28;20118;-78
2021/12/12 05:42:59;;;;;;;11.13;6.85;;;;;;;7.92;100.00;100649.34;5112286;28;20389;-76
2021/12/12 05:45:27;;;;;;;15.70;8.13;;;;;;;7.93;100.00;100645.75;5112187;28;20057;-78
2021/12/12 05:47:52;;;;;;;15.98;7.68;;;;;;;7.91;100.00;100644.22;5107770;28;20027;-76
2021/12/12 05:50:19;;;;;;;14.15;7.90;;;;;;;7.95;100.00;100651.69;5106915;28;20023;-74
2021/12/12 05:52:46;;;;;;;12.75;7.07;;;;;;;7.91;100.00;100642.41;5102687;28;20024;-75
2021/12/12 05:55:14;;;;;;;11.80;7.30;;;;;;;7.94;100.00;100646.56;5089857;27;20035;-74
2021/12/12 05:57:43;;;;;;;15.57;7.13;;;;;;;7.94;100.00;100652.69;5111894;28;20039;-73
2021/12/12 06:00:13;;;;;;;18.52;7.20;;;;;;;7.96;100.00;100653.34;5114259;28;20035;-71
2021/12/12 06:02:41;;;;;;;18.58;7.70;;;;;;;7.94;100.00;100651.84;5113751;28;20115;-76
2021/12/12 06:05:08;;;;;;;13.30;6.88;;;;;;;7.99;100.00;100660.94;5114679;27;20034;-75
2021/12/12 06:07:34;;;;;;;20.17;7.75;;;;;;;8.01;100.00;100661.63;5109489;28;20039;-77
2021/12/12 06:10:04;;;;;;;29.13;7.22;;;;;;;8.01;100.00;100669.56;5104266;28;20024;-75
2021/12/12 06:12:33;;;;;;;10.18;7.00;;;;;;;7.97;100.00;100667.38;5113109;28;20106;-74
2021/12/12 06:14:59;;;;;;;15.15;7.32;;;;;;;7.94;100.00;100654.50;5112246;28;20114;-73
2021/12/12 06:17:25;;;;;;;20.92;7.22;;;;;;;7.96;100.00;100655.16;5112365;28;20031;-73
2021/12/12 06:19:52;;;;;;;23.70;8.35;;;;;;;7.94;100.00;100657.97;5113801;28;20030;-78
2021/12/12 06:22:20;;;;;;;12.35;7.60;;;;;;;7.92;100.00;100651.97;5110702;28;20023;-76
2021/12/12 06:24:50;;;;;;;21.05;8.20;;;;;;;7.91;100.00;100658.25;5109724;28;20067;-77
2021/12/12 06:27:19;;;;;;;10.93;6.88;;;;;;;7.91;100.00;100667.97;5113524;28;20039;-75
2021/12/12 06:29:51;;;;;;;12.02;7.75;;;;;;;8.01;100.00;100674.84;5113054;28;20055;-71
2021/12/12 06:32:16;;;;;;;19.60;8.02;;;;;;;8.35;100.00;100687.31;5104788;28;20118;-67
2021/12/12 06:34:43;;;;;;;13.23;8.25;;;;;;;8.32;100.00;100716.66;5107173;28;20455;-67
2021/12/12 06:37:09;;;;;;;20.25;8.40;;;;;;;8.69;100.00;100734.94;5111714;28;20037;-68
2021/12/12 06:39:36;;;;;;;27.33;11.40;;;;;;;8.78;100.00;100735.81;5106059;28;20020;-68
2021/12/12 06:42:04;;;;;;;23.02;12.00;;;;;;;8.53;100.00;100748.06;5112979;28;20027;-67
2021/12/12 06:44:29;;;;;;;19.92;11.05;;;;;;;8.76;100.00;100743.91;5113454;28;20024;-68
2021/12/12 06:46:55;;;;;;;21.27;11.50;;;;;;;8.82;100.00;100734.50;5113243;28;20093;-68
2021/12/12 06:49:23;;;;;;;9.18;7.20;;;;;;;9.02;100.00;100733.25;5111279;28;20023;-68
2021/12/12 06:51:54;;;;;;;12.85;7.13;;;;;;;8.82;100.00;100731.88;5107348;28;20425;-68
2021/12/12 06:54:23;;;;;;;24.65;7.95;;;;;;;9.02;100.00;100714.72;5107907;28;20016;-67
2021/12/12 06:56:53;;;;;;;12.63;7.63;;;;;;;9.18;100.00;100729.88;5110546;28;20035;-67
2021/12/12 06:59:21;;;;;;;18.08;8.38;;;;;;;8.89;100.00;100713.50;5110031;28;20035;-66
2021/12/12 07:01:48;;;;;;;15.63;8.65;;;;;;;8.86;100.00;100706.72;5111835;28;20031;-68
2021/12/12 07:04:18;;;;;;;14.68;9.00;;;;;;;8.93;100.00;100699.00;5111217;28;20135;-67
2021/12/12 07:06:44;;;;;;;15.50;8.68;;;;;;;8.96;100.00;100707.44;5104064;28;20036;-67
2021/12/12 07:09:11;;;;;;;20.65;8.30;;;;;;;8.90;100.00;100701.97;5110653;28;20028;-67
2021/12/12 07:11:39;;;;;;;19.08;8.30;;;;;;;8.97;100.00;100703.81;5109684;28;20068;-66
2021/12/12 07:14:06;;;;;;;14.85;8.45;;;;;;;8.81;100.00;100694.00;5112176;28;20023;-67
2021/12/12 07:16:32;;;;;;;26.70;10.40;;;;;;;8.91;100.00;100709.75;5106237;28;20032;-66
2021/12/12 07:18:59;;;;;;;18.67;9.52;;;;;;;8.81;100.00;100715.16;5096954;28;20016;-68
2021/12/12 07:21:25;;;;;;;14.55;9.40;;;;;;;8.76;100.00;100729.84;5097303;28;20084;-69
2021/12/12 07:23:52;;;;;;;14.50;8.88;;;;;;;8.76;100.00;100700.75;5099975;28;20376;-68
2021/12/12 07:26:22;;;;;;;13.35;9.27;;;;;;;8.58;100.00;100700.81;5097547;28;20505;-68
2021/12/12 07:28:49;;;;;;;12.93;8.95;;;;;;;8.55;100.00;100719.66;5097191;28;20039;-68
2021/12/12 07:31:19;;;;;;;21.48;11.00;;;;;;;8.46;100.00;100715.31;5093103;28;20274;-67
2021/12/12 07:33:50;;;;;;;15.95;10.27;;;;;;;8.45;100.00;100698.63;5103126;28;20016;-68
2021/12/12 07:36:19;;;;;;;20.50;10.00;;;;;;;8.33;100.00;100705.09;5103668;28;20050;-67
2021/12/12 07:38:51;;;;;;;16.45;11.18;;;;;;;8.32;100.00;100714.84;5106416;28;20024;-67
2021/12/12 07:41:19;;;;;;;19.05;10.68;;;;;;;8.37;100.00;100711.75;5108854;28;20032;-69
2021/12/12 07:43:46;;;;;;;17.17;10.48;;;;;;;8.31;100.00;100744.09;5096911;28;20398;-68
2021/12/12 07:46:11;;;;;;;20.42;10.13;;;;;;;8.29;100.00;100719.59;5094255;28;20031;-70
2021/12/12 07:48:42;;;;;;;15.55;9.98;;;;;;;8.38;100.00;100725.84;5106269;28;20432;-68
2021/12/12 07:51:09;;;;;;;20.63;10.70;;;;;;;8.16;100.00;100687.50;5109754;28;20032;-71
2021/12/12 07:53:35;;;;;;;20.10;11.20;;;;;;;8.29;100.00;100717.78;5103483;28;20119;-71
2021/12/12 07:56:01;;;;;;;15.70;10.48;;;;;;;8.19;100.00;100701.22;5104815;28;20119;-70
2021/12/12 07:58:27;;;;;;;15.02;11.35;;;;;;;8.21;100.00;100708.97;5100014;28;20110;-71
2021/12/12 08:00:55;;;;;;;16.50;11.70;;;;;;;8.26;100.00;100704.91;5098048;28;20036;-70
2021/12/12 08:03:24;;;;;;;22.88;11.75;;;;;;;8.23;100.00;100751.97;5097877;28;20047;-71
2021/12/12 08:05:50;;;;;;;16.55;11.25;;;;;;;8.18;100.00;100710.13;5102032;28;20118;-71
2021/12/12 08:08:16;;;;;;;15.88;12.18;;;;;;;8.09;100.00;100750.69;5109483;28;20030;-71
2021/12/12 08:10:44;;;;;;;13.85;10.82;;;;;;;8.19;100.00;100718.88;5111783;28;20027;-69
2021/12/12 08:13:12;;;;;;;20.33;10.88;;;;;;;8.14;100.00;100727.25;5108922;28;20141;-75
2021/12/12 08:15:38;;;;;;;18.88;12.07;;;;;;;8.13;100.00;100724.78;5107479;28;20028;-72
2021/12/12 08:18:08;;;;;;;12.57;10.05;;;;;;;8.16;100.00;100725.31;5102877;28;20023;-72
2021/12/12 08:20:34;;;;;;;15.10;11.57;;;;;;;8.13;100.00;100722.13;5103928;28;20536;-71
2021/12/12 08:23:00;;;;;;;22.98;10.43;;;;;;;8.08;100.00;100722.63;5104892;28;20035;-70
2021/12/12 08:25:27;;;;;;;18.05;11.38;;;;;;;8.13;100.00;100715.03;5094841;28;20028;-73
2021/12/12 08:27:57;;;;;;;23.27;13.05;;;;;;;8.08;100.00;100753.47;5103003;28;20378;-70
2021/12/12 08:30:23;;;;;;;20.88;12.32;;;;;;;8.03;100.00;100712.50;5095772;28;20107;-70
2021/12/12 08:32:50;;;;;;;20.08;11.93;;;;;;;8.00;100.00;100725.16;5098365;28;20036;-70
2021/12/12 08:35:19;;;;;;;22.15;11.80;;;;;;;7.98;100.00;100730.63;5095244;28;20044;-78
2021/12/12 08:37:46;;;;;;;19.70;12.63;;;;;;;8.01;100.00;100721.56;5101493;27;20027;-73
2021/12/12 08:40:18;;;;;;;18.60;12.23;;;;;;;7.88;100.00;100721.97;5104849;28;20076;-77
2021/12/12 08:42:46;;;;;;;26.90;15.48;;;;;;;7.93;100.00;100748.75;5103998;28;20064;-76
2021/12/12 08:45:14;;;;;;;18.20;12.32;;;;;;;7.88;100.00;100727.25;5101351;28;20386;-74
2021/12/12 08:47:40;;;;;;;19.48;12.23;;;;;;;7.89;100.00;100750.03;5098866;28;20405;-74
2021/12/12 08:50:09;;;;;;;28.77;13.40;;;;;;;7.86;100.00;100750.34;5102243;28;20115;-72
2021/12/12 08:52:39;;;;;;;26.75;12.13;;;;;;;7.83;100.00;100736.59;5100013;28;20105;-71
2021/12/12 08:55:14;;;;;;;40.50;12.15;;;;;;;7.75;100.00;100724.97;5096256;28;20504;-68
2021/12/12 08:57:57;;;;;;;20.70;12.82;;;;;;;7.64;100.00;100711.19;5101818;28;20035;-71
2021/12/12 09:00:23;;;;;;;27.98;13.02;;;;;;;7.67;100.00;100721.44;5099760;28;20030;-69
2021/12/12 09:02:52;;;;;;;22.85;13.65;;;;;;;7.64;100.00;100706.75;5097894;28;20093;-68
2021/12/12 09:05:22;;;;;;;24.50;14.30;;;;;;;7.65;100.00;100720.75;5107218;28;20035;-69
2021/12/12 09:07:51;;;;;;;13.50;11.00;;;;;;;7.53;100.00;100700.84;5107649;28;20127;-64
2021/12/12 09:10:27;;;;;;;18.13;10.65;;;;;;;7.52;100.00;100715.03;5108052;28;20099;-68
2021/12/12 09:13:20;;;;;;;20.50;13.40;;;;;;;7.41;100.00;100693.13;5105588;28;20023;-70
2021/12/12 09:16:01;;;;;;;29.52;12.60;;;;;;;7.45;100.00;100710.34;5105792;28;20020;-65
2021/12/12 09:18:52;;;;;;;24.02;13.73;;;;;;;7.39;100.00;100681.06;5104148;28;20080;-71
2021/12/12 09:21:53;;;;;;;23.58;13.20;;;;;;;7.38;100.00;100667.06;5106556;28;20110;-71
2021/12/12 09:24:26;;;;;;;26.17;13.10;;;;;;;7.48;100.00;100662.50;5103533;28;20107;-69
2021/12/12 09:26:57;;;;;;;29.63;15.03;;;;;;;7.51;100.00;100684.34;5105645;28;20031;-68
2021/12/12 09:29:25;;;;;;;23.50;13.20;;;;;;;7.81;100.00;100697.13;5105204;28;20016;-70
2021/12/12 09:31:59;;;;;;;13.30;9.80;;;;;;;7.73;100.00;100681.22;5104823;28;20036;-73
2021/12/12 09:34:34;;;;;;;25.83;14.70;;;;;;;7.41;100.00;100679.94;5103536;28;20479;-74
2021/12/12 09:37:17;;;;;;;13.68;11.52;;;;;;;7.39;100.00;100744.41;5104042;28;20031;-75
2021/12/12 09:39:49;;;;;;;19.77;12.25;;;;;;;7.37;100.00;100670.69;5102285;27;20386;-74
2021/12/12 09:42:42;;;;;;;18.48;11.95;;;;;;;7.34;100.00;100681.50;5105184;28;20367;-75
2021/12/12 09:45:23;;;;;;;16.50;10.57;;;;;;;7.30;100.00;100687.25;5105196;28;20109;-76
2021/12/12 09:51:17;;;;;;;20.00;11.68;;;;;;;7.30;100.00;100676.72;5105447;28;20031;-75
2021/12/12 09:53:51;;;;;;;21.83;13.05;;;;;;;7.33;100.00;100647.38;5108667;28;20043;-71
2021/12/12 09:56:23;;;;;;;28.40;14.98;;;;;;;7.33;100.00;100655.28;5103625;28;20036;-71
2021/12/12 09:59:23;;;;;;;22.65;13.45;;;;;;;7.25;100.00;100682.41;5102954;27;20070;-71
2021/12/12 10:02:04;;;;;;;25.13;16.02;;;;;;;7.24;100.00;100659.66;5108823;28;20032;-72
2021/12/12 10:04:48;;;;;;;19.45;12.48;;;;;;;7.24;100.00;100637.72;5104330;27;20051;-69
2021/12/12 10:07:34;;;;;;;15.75;12.55;;;;;;;7.14;100.00;100670.28;5097861;28;20032;-69
2021/12/12 10:10:07;;;;;;;16.67;11.75;;;;;;;7.14;100.00;100632.53;5098672;28;20024;-67
2021/12/12 10:12:45;;;;;;;32.15;14.05;;;;;;;7.18;100.00;100632.06;5097720;28;20130;-71
2021/12/12 10:15:16;;;;;;;21.67;13.13;;;;;;;7.10;100.00;100631.16;5095581;28;20032;-72
2021/12/12 10:18:08;;;;;;;26.73;14.05;;;;;;;7.26;100.00;100633.94;5098055;28;20028;-69
2021/12/12 10:21:01;;;;;;;22.50;13.85;;;;;;;7.30;100.00;100624.75;5098729;28;20027;-70
2021/12/12 10:23:45;;;;;;;23.55;13.45;;;;;;;7.31;100.00;100673.91;5108121;28;20032;-68
2021/12/12 10:26:20;;;;;;;15.75;9.40;;;;;;;7.38;100.00;100630.09;5099192;28;20023;-70
2021/12/12 10:29:12;;;;;;;16.35;10.65;;;;;;;7.37;100.00;100638.19;5106140;28;20027;-68
2021/12/12 10:31:52;;;;;;;26.92;16.10;;;;;;;7.37;100.00;100638.19;5096550;28;20059;-71
2021/12/12 10:34:20;;;;;;;17.35;12.10;;;;;;;7.44;100.00;100640.06;5100569;28;20023;-72
2021/12/12 10:36:51;;;;;;;24.73;14.50;;;;;;;7.43;100.00;100643.69;5109587;28;20087;-72
2021/12/12 10:39:31;;;;;;;19.67;14.52;;;;;;;7.40;100.00;100607.03;5109255;28;20038;-71
2021/12/12 10:42:01;;;;;;;16.27;10.30;;;;;;;7.34;100.00;100644.56;5112266;28;20032;-72
2021/12/12 10:44:46;;;;;;;20.67;12.25;;;;;;;7.38;100.00;100635.38;5106107;28;20045;-75
2021/12/12 10:47:17;;;;;;;23.48;14.95;;;;;;;7.33;100.00;100592.78;5107829;28;20136;-73
2021/12/12 10:50:02;;;;;;;30.42;16.88;;;;;;;7.38;100.00;100614.28;5100464;28;20568;-75
2021/12/12 10:52:34;;;;;;;27.38;12.75;;;;;;;7.39;100.00;100615.09;5104208;28;20036;-75
2021/12/12 10:55:05;;;;;;;29.02;16.27;;;;;;;7.36;100.00;100615.41;5107437;28;20034;-74
2021/12/12 10:57:38;;;;;;;23.45;14.13;;;;;;;7.37;100.00;100651.38;5101708;28;22373;-75
2021/12/12 11:00:14;;;;;;;21.65;13.13;;;;;;;7.34;100.00;100589.16;5093474;28;20495;-74
2021/12/12 11:02:47;;;;;;;13.50;11.20;;;;;;;7.34;100.00;100607.63;5104517;28;20501;-75
2021/12/12 11:05:27;;;;;;;9.50;8.60;;;;;;;7.31;100.00;100586.81;5097570;28;20047;-73
2021/12/12 11:08:23;;;;;;;17.48;11.15;;;;;;;7.32;100.00;100621.97;5099575;28;20032;-72
2021/12/12 11:10:51;;;;;;;18.88;13.38;;;;;;;7.39;100.00;100605.38;5099150;28;20028;-72
2021/12/12 11:13:32;;;;;;;15.05;11.60;;;;;;;7.44;100.00;100608.38;5102987;28;20023;-72
2021/12/12 11:16:04;;;;;;;20.30;11.52;;;;;;;7.45;100.00;100615.31;5094337;28;20555;-72
2021/12/12 11:18:57;;;;;;;16.88;13.13;;;;;;;7.40;100.00;100593.81;5105645;28;20032;-68
2021/12/12 11:21:39;;;;;;;19.48;11.98;;;;;;;7.43;100.00;100598.81;5099662;28;20496;-69
2021/12/12 11:24:15;;;;;;;18.30;11.45;;;;;;;7.38;100.00;100614.28;5094547;28;20052;-69
2021/12/12 11:26:52;;;;;;;19.05;13.63;;;;;;;7.38;100.00;100601.06;5096968;28;20063;-71
2021/12/12 11:29:26;;;;;;;20.38;13.38;;;;;;;7.45;100.00;100588.94;5100872;28;20077;-71
2021/12/12 11:32:08;;;;;;;24.95;13.40;;;;;;;7.50;100.00;100619.31;5099176;28;20024;-68
2021/12/12 11:34:35;;;;;;;17.05;11.13;;;;;;;7.48;100.00;100580.69;5104728;28;20108;-66
2021/12/12 11:37:16;;;;;;;19.85;13.23;;;;;;;7.54;100.00;100607.47;5100634;28;20043;-70
2021/12/12 11:40:01;;;;;;;19.55;13.30;;;;;;;7.45;100.00;100623.25;5097306;28;20088;-67
2021/12/12 11:42:54;;;;;;;15.00;10.77;;;;;;;7.41;100.00;100595.47;5097416;28;20036;-71
2021/12/12 11:45:26;;;;;;;14.98;11.50;;;;;;;7.40;100.00;100601.75;5096572;28;20027;-73
2021/12/12 11:48:25;;;;;;;21.65;12.30;;;;;;;7.51;100.00;100607.78;5094456;28;20035;-72
2021/12/12 11:51:03;;;;;;;18.35;11.57;;;;;;;7.47;100.00;100579.03;5095120;28;20035;-72
2021/12/12 11:54:04;;;;;;;24.25;14.48;;;;;;;7.47;100.00;100596.69;5096044;28;20039;-74